Brandon, MS

5:21 AM CST on December 04, 2016 (GMT -0600)
Raintree Place | | Change Station

Elev 410 ft 32.26 °N, 89.98 °W | Updated 30 seconds ago

Overcast
Overcast
48.6 °F
Feels Like 49 °F
N
2.0
Wind Variable Wind from NW

Today
High -- | Low -- °F
--% Chance of Precip.
Yesterday
High -- | Low -- °F
Precip. -- in
Pressure 29.92 in
Visibility 10.0 miles
Clouds Overcast 1200 ft
Windchill 49 °F
Dew Point 48 °F
Humidity 98%
Rainfall 0.20 in
Snow Depth Not available.
6:46 AM 4:54 PM
Waxing Crescent, 22% visible
METAR KJAN 041054Z AUTO 35004KT 10SM OVC012 10/08 A2992 RMK AO2 SLP132 T01000083
Pressure 29.92 in
Visibility 10.0 miles
Clouds Overcast 1200 ft
Windchill 49 °F
Dew Point 48 °F
Humidity 98%
Rainfall 0.20 in
Snow Depth Not available.
6:46 AM 4:54 PM
Waxing Crescent, 22% visible
METAR KJAN 041054Z AUTO 35004KT 10SM OVC012 10/08 A2992 RMK AO2 SLP132 T01000083

10-Day Weather Forecast

Almanac

Astronomy

Dec. 04, 2016 Rise Set
Actual Time
Civil Twilight
Nautical Twilight
Astronomical Twilight
Moon
Length of Visible Light
Length of Day
Tomorrow will be .
, % of the Moon is Illuminated

Today's Extremes

State Highs State Lows

Community

WunderPhotos

Upload Photos

1,955,593 photos uploaded!

WunderBlog® & News

Nearby

Air Quality

  Air Quality AQ Index Pollutant
Not available.

Snow Depth

Station Depth Elevation

Earthquake Activity

City Distance Mag. Time & Date
Minimum magnitude displayed is 2.5.

Coastal Water Temperatures

Place Temperature

Stations

Nearby Weather Stations

Station Location Temp. Windchill Dew Point Humidity Wind Precip. Elev Updated Type
                   

Watches & Warnings

There are currently no watches in effect.